Time;durP1;ratioP1;P1;durP2;ratioP2;P2;SDS_P1;SDS_P2;PMS_P1;PMS_P2;Temp;Humidity;BMP_temperature;BMP_pressure;BME280_temperature;BME280_humidity;BME280_pressure;Samples;Min_cycle;Max_cycle;Signal;HPM_P1;HPM_P2
2023/05/17 00:02:05;;;;;;;3.33;2.20;;;;;;;14.04;100.00;99324.63;5064166;28;20199;-62
2023/05/17 00:04:32;;;;;;;4.45;2.45;;;;;;;13.94;100.00;99332.13;5068266;28;20107;-61
2023/05/17 00:06:57;;;;;;;10.15;3.17;;;;;;;13.78;100.00;99319.09;5063320;28;20055;-61
2023/05/17 00:09:23;;;;;;;6.18;3.00;;;;;;;13.70;100.00;99328.03;5061549;28;20326;-62
2023/05/17 00:11:48;;;;;;;5.32;3.50;;;;;;;13.70;100.00;99336.03;5061397;28;20043;-62
2023/05/17 00:14:13;;;;;;;5.78;3.67;;;;;;;13.91;100.00;99336.00;5064946;28;20238;-61
2023/05/17 00:16:39;;;;;;;7.05;3.38;;;;;;;13.95;100.00;99331.09;5064360;28;20089;-61
2023/05/17 00:19:05;;;;;;;6.50;3.60;;;;;;;13.97;100.00;99329.91;5062069;28;20043;-61
2023/05/17 00:21:30;;;;;;;6.38;3.45;;;;;;;13.87;100.00;99332.06;5060909;28;20253;-62
2023/05/17 00:23:55;;;;;;;6.85;3.33;;;;;;;13.92;100.00;99331.50;5062079;28;20032;-61
2023/05/17 00:26:21;;;;;;;5.22;3.53;;;;;;;13.96;100.00;99336.22;5060376;28;20082;-62
2023/05/17 00:28:46;;;;;;;5.78;3.65;;;;;;;13.95;100.00;99341.75;5063324;28;20120;-61
2023/05/17 00:31:12;;;;;;;6.15;3.53;;;;;;;13.80;100.00;99341.84;5071066;28;20226;-62
2023/05/17 00:33:37;;;;;;;5.25;3.63;;;;;;;13.87;100.00;99339.22;5058922;28;20033;-62
2023/05/17 00:36:03;;;;;;;7.10;3.85;;;;;;;13.91;100.00;99348.47;5063292;28;20051;-62
2023/05/17 00:38:28;;;;;;;5.82;3.97;;;;;;;14.09;100.00;99335.50;5061229;28;20035;-61
2023/05/17 00:40:54;;;;;;;6.30;4.18;;;;;;;13.82;100.00;99337.16;5065353;28;20250;-62
2023/05/17 00:43:19;;;;;;;6.70;4.05;;;;;;;13.63;100.00;99298.72;5062871;28;20261;-62
2023/05/17 00:45:47;;;;;;;7.15;3.88;;;;;;;13.86;100.00;99325.09;5061427;28;20037;-63
2023/05/17 00:48:13;;;;;;;6.38;4.00;;;;;;;13.89;100.00;99330.03;5064017;28;20044;-61
2023/05/17 00:50:39;;;;;;;6.05;4.10;;;;;;;13.91;100.00;99321.88;5064737;28;20040;-62
2023/05/17 00:53:05;;;;;;;5.80;4.32;;;;;;;13.84;100.00;99316.50;5063220;28;20278;-61
2023/05/17 00:55:31;;;;;;;5.18;4.13;;;;;;;13.79;100.00;99307.44;5065518;28;20037;-61
2023/05/17 00:57:56;;;;;;;5.03;4.00;;;;;;;13.79;100.00;99302.94;5069058;28;20036;-61
2023/05/17 01:00:22;;;;;;;5.95;3.95;;;;;;;13.74;100.00;99295.53;5067356;28;20033;-62
2023/05/17 01:02:48;;;;;;;6.20;3.88;;;;;;;13.72;100.00;99289.59;5065831;28;20058;-62
2023/05/17 01:05:14;;;;;;;8.10;4.30;;;;;;;13.89;100.00;99303.44;5064489;28;20052;-61
2023/05/17 01:07:40;;;;;;;6.35;4.10;;;;;;;14.19;100.00;99306.69;5063354;28;20060;-61
2023/05/17 01:10:06;;;;;;;6.70;4.03;;;;;;;14.30;100.00;99310.66;5066652;28;20358;-61
2023/05/17 01:12:48;;;;;;;6.95;4.68;;;;;;;14.50;100.00;99308.94;5066546;28;20028;-62
2023/05/17 01:15:18;;;;;;;6.75;3.95;;;;;;;14.75;100.00;99319.13;5068479;28;20060;-61
2023/05/17 01:17:53;;;;;;;6.80;4.43;;;;;;;14.91;100.00;99314.25;5067953;28;20833;-61
2023/05/17 01:20:31;;;;;;;6.20;4.25;;;;;;;15.02;100.00;99316.34;5071877;28;20334;-62
2023/05/17 01:23:19;;;;;;;8.15;4.32;;;;;;;15.09;100.00;99316.34;5066121;28;20083;-62
2023/05/17 01:26:03;;;;;;;7.47;3.85;;;;;;;15.18;100.00;99315.13;5065687;28;20048;-62
2023/05/17 01:28:30;;;;;;;6.07;3.47;;;;;;;15.02;100.00;99312.84;5066267;28;20063;-61
2023/05/17 01:30:57;;;;;;;6.22;3.97;;;;;;;14.99;100.00;99303.41;5069601;28;20033;-61
2023/05/17 01:33:24;;;;;;;5.82;4.10;;;;;;;14.95;100.00;99288.00;5063721;28;20040;-62
2023/05/17 01:35:49;;;;;;;7.63;4.88;;;;;;;15.06;100.00;99298.09;5063442;28;20231;-61
2023/05/17 01:38:15;;;;;;;5.53;4.28;;;;;;;15.09;100.00;99287.03;5066429;28;20055;-61
2023/05/17 01:40:51;;;;;;;7.65;4.45;;;;;;;15.19;100.00;99284.78;5066105;28;20215;-61
2023/05/17 01:43:42;;;;;;;7.18;4.00;;;;;;;15.27;100.00;99281.91;5063502;28;20040;-63
2023/05/17 01:46:31;;;;;;;9.85;4.53;;;;;;;15.36;100.00;99293.22;5063897;28;20047;-61
2023/05/17 01:49:36;;;;;;;6.97;4.28;;;;;;;15.33;100.00;99283.78;5065573;28;20056;-61
2023/05/17 01:52:07;;;;;;;8.65;4.70;;;;;;;15.28;100.00;99280.91;5064892;28;20072;-62
2023/05/17 01:55:13;;;;;;;6.97;4.40;;;;;;;15.31;100.00;99291.16;5064764;28;20040;-61
2023/05/17 01:57:40;;;;;;;5.82;3.67;;;;;;;15.34;100.00;99289.94;5062277;28;20047;-62
2023/05/17 02:00:09;;;;;;;7.68;4.57;;;;;;;15.24;100.00;99277.00;5062979;28;20055;-62
2023/05/17 02:02:35;;;;;;;9.70;4.40;;;;;;;15.17;100.00;99286.84;5066769;28;20056;-61
2023/05/17 02:05:00;;;;;;;8.02;4.60;;;;;;;15.06;100.00;99283.94;5072697;28;20040;-61
2023/05/17 02:07:26;;;;;;;9.88;4.60;;;;;;;15.10;100.00;99290.50;5064148;28;20032;-62
2023/05/17 02:09:51;;;;;;;8.32;4.97;;;;;;;14.98;100.00;99301.75;5064626;28;20039;-61
2023/05/17 02:12:17;;;;;;;6.80;4.07;;;;;;;15.08;100.00;99316.56;5072168;28;20045;-61
2023/05/17 02:14:42;;;;;;;8.02;4.70;;;;;;;15.10;100.00;99315.34;5062429;28;20041;-62
2023/05/17 02:17:07;;;;;;;8.00;5.03;;;;;;;15.10;100.00;99310.00;5067053;28;20032;-62
2023/05/17 02:19:33;;;;;;;7.07;4.07;;;;;;;15.10;100.00;99301.19;5066795;28;20048;-62
2023/05/17 02:21:58;;;;;;;7.25;4.20;;;;;;;15.15;100.00;99301.38;5066137;28;20038;-62
2023/05/17 02:24:24;;;;;;;6.20;4.20;;;;;;;15.16;100.00;99293.19;5062697;28;20239;-62
2023/05/17 02:26:49;;;;;;;7.63;4.78;;;;;;;15.22;100.00;99296.88;5068098;28;20051;-61
2023/05/17 02:29:15;;;;;;;6.93;4.40;;;;;;;15.25;100.00;99299.97;5066371;28;20103;-62
2023/05/17 02:31:40;;;;;;;7.55;4.10;;;;;;;15.27;100.00;99305.09;5066362;28;20032;-62
2023/05/17 02:34:06;;;;;;;7.78;4.45;;;;;;;15.25;100.00;99305.31;5064990;28;20032;-61
2023/05/17 02:36:31;;;;;;;6.60;4.32;;;;;;;15.17;100.00;99300.16;5062472;28;20362;-61
2023/05/17 02:38:57;;;;;;;9.88;4.40;;;;;;;15.15;100.00;99310.22;5061886;28;20041;-62
2023/05/17 02:41:22;;;;;;;7.28;5.03;;;;;;;15.22;100.00;99307.56;5063115;28;20100;-62
2023/05/17 02:43:48;;;;;;;5.97;4.32;;;;;;;15.23;100.00;99312.69;5064010;28;20044;-61
2023/05/17 02:46:13;;;;;;;8.65;4.57;;;;;;;15.25;100.00;99318.66;5069924;28;20047;-61
2023/05/17 02:48:39;;;;;;;7.10;4.93;;;;;;;15.21;100.00;99319.25;5063717;28;20048;-61
2023/05/17 02:51:05;;;;;;;7.88;4.35;;;;;;;15.28;100.00;99315.56;5062489;28;20285;-61
2023/05/17 02:53:30;;;;;;;8.05;4.57;;;;;;;15.25;100.00;99313.31;5063621;28;20111;-61
2023/05/17 02:55:56;;;;;;;7.32;4.90;;;;;;;15.22;100.00;99320.91;5067427;28;20595;-61
2023/05/17 02:58:23;;;;;;;8.27;5.22;;;;;;;15.18;100.00;99325.00;5066069;28;20057;-61
2023/05/17 03:00:50;;;;;;;8.75;5.03;;;;;;;15.11;100.00;99316.97;5064364;28;20043;-61
2023/05/17 03:03:16;;;;;;;7.63;4.68;;;;;;;15.15;100.00;99318.22;5064573;28;20039;-62
2023/05/17 03:05:41;;;;;;;8.25;5.70;;;;;;;15.20;100.00;99322.94;5066486;28;20040;-62
2023/05/17 03:08:07;;;;;;;9.13;5.57;;;;;;;15.26;100.00;99341.63;5062209;28;20044;-62
2023/05/17 03:10:32;;;;;;;7.25;4.82;;;;;;;15.26;100.00;99340.81;5062105;28;20330;-62
2023/05/17 03:12:57;;;;;;;8.50;4.80;;;;;;;15.27;100.00;99337.13;5064225;28;20032;-61
2023/05/17 03:15:25;;;;;;;6.88;4.90;;;;;;;15.31;100.00;99331.16;5065081;28;20043;-62
2023/05/17 03:17:51;;;;;;;10.25;5.10;;;;;;;15.30;100.00;99337.53;5063429;28;20040;-61
2023/05/17 03:20:17;;;;;;;12.25;5.80;;;;;;;15.37;100.00;99340.22;5061956;28;20045;-62
2023/05/17 03:22:42;;;;;;;6.45;5.10;;;;;;;15.37;100.00;99337.53;5061105;28;20033;-62
2023/05/17 03:25:08;;;;;;;8.45;5.05;;;;;;;15.34;100.00;99348.63;5064356;28;20028;-61
2023/05/17 03:27:33;;;;;;;7.07;5.07;;;;;;;15.37;100.00;99353.53;5060735;28;20306;-61
2023/05/17 03:29:59;;;;;;;7.20;4.88;;;;;;;15.42;100.00;99347.59;5062443;28;20045;-61
2023/05/17 03:32:25;;;;;;;6.68;4.63;;;;;;;15.45;100.00;99361.34;5061050;28;20033;-61
2023/05/17 03:34:50;;;;;;;7.35;4.78;;;;;;;15.49;100.00;99370.59;5060975;28;20325;-62
2023/05/17 03:37:16;;;;;;;8.00;4.63;;;;;;;15.50;100.00;99366.09;5061671;28;20354;-62
2023/05/17 03:39:41;;;;;;;7.53;4.82;;;;;;;15.40;100.00;99360.31;5065305;28;20224;-61
2023/05/17 03:42:07;;;;;;;7.28;4.97;;;;;;;15.35;100.00;99358.25;5064141;28;20036;-62
2023/05/17 03:44:32;;;;;;;9.82;5.13;;;;;;;15.35;100.00;99363.59;5065221;28;20049;-61
2023/05/17 03:46:57;;;;;;;10.38;5.05;;;;;;;15.37;100.00;99368.72;5065017;28;20603;-62
2023/05/17 03:49:23;;;;;;;10.95;5.60;;;;;;;15.44;100.00;99365.06;5063687;28;20046;-62
2023/05/17 03:51:48;;;;;;;8.35;5.50;;;;;;;15.51;100.00;99363.22;5063379;28;20047;-62
2023/05/17 03:54:14;;;;;;;7.85;4.95;;;;;;;15.50;100.00;99371.44;5061793;28;20050;-62
2023/05/17 03:56:39;;;;;;;9.77;5.45;;;;;;;15.40;100.00;99377.16;5060218;28;20326;-62
2023/05/17 03:59:04;;;;;;;8.38;5.47;;;;;;;15.36;100.00;99369.75;5063550;28;20055;-61
2023/05/17 04:01:30;;;;;;;9.27;5.53;;;;;;;15.39;100.00;99358.69;5061856;28;20040;-62
2023/05/17 04:03:55;;;;;;;8.50;5.57;;;;;;;15.35;100.00;99360.94;5061669;28;20060;-61
2023/05/17 04:06:21;;;;;;;9.75;6.60;;;;;;;15.31;100.00;99371.19;5064016;28;20047;-61
2023/05/17 04:08:46;;;;;;;11.52;6.35;;;;;;;15.34;100.00;99361.97;5065041;28;20052;-61
2023/05/17 04:11:12;;;;;;;12.25;6.25;;;;;;;15.30;100.00;99364.22;5062688;28;20029;-61
2023/05/17 04:13:39;;;;;;;11.70;6.45;;;;;;;15.42;100.00;99368.94;5064078;28;20037;-63
2023/05/17 04:16:06;;;;;;;9.95;6.45;;;;;;;15.45;100.00;99372.03;5060354;28;20210;-61
2023/05/17 04:18:35;;;;;;;14.73;6.45;;;;;;;15.39;100.00;99378.19;5065085;28;20112;-62
2023/05/17 04:21:02;;;;;;;10.95;6.78;;;;;;;15.37;100.00;99377.56;5061428;28;20033;-62
2023/05/17 04:23:27;;;;;;;15.23;6.90;;;;;;;15.32;100.00;99378.16;5063657;28;20043;-63
2023/05/17 04:25:53;;;;;;;11.82;6.50;;;;;;;15.33;100.00;99378.97;5064218;28;20037;-62
2023/05/17 04:28:20;;;;;;;10.32;6.18;;;;;;;15.45;100.00;99381.88;5063540;28;20126;-62
2023/05/17 04:30:46;;;;;;;10.95;6.50;;;;;;;15.52;100.00;99372.88;5063571;28;20128;-62
2023/05/17 04:33:12;;;;;;;11.02;6.38;;;;;;;15.66;100.00;99372.94;5064110;28;20055;-62
2023/05/17 04:35:40;;;;;;;10.68;6.43;;;;;;;15.73;100.00;99376.44;5063189;28;20060;-63
2023/05/17 04:38:06;;;;;;;9.48;6.35;;;;;;;15.71;100.00;99365.97;5060968;28;20376;-62
2023/05/17 04:40:31;;;;;;;10.68;6.07;;;;;;;15.76;100.00;99368.84;5060177;28;20044;-62
2023/05/17 04:42:57;;;;;;;11.00;6.32;;;;;;;15.82;100.00;99368.03;5064176;28;20040;-62
2023/05/17 04:45:22;;;;;;;10.48;5.90;;;;;;;15.86;100.00;99361.25;5065299;28;20040;-62
2023/05/17 04:47:49;;;;;;;14.45;6.35;;;;;;;15.93;100.00;99353.25;5058531;28;20040;-62
2023/05/17 04:50:15;;;;;;;10.75;7.00;;;;;;;15.97;100.00;99359.81;5069213;28;20055;-62
2023/05/17 04:52:41;;;;;;;14.25;7.18;;;;;;;16.04;100.00;99355.28;5061151;28;20025;-62
2023/05/17 04:55:07;;;;;;;10.10;6.30;;;;;;;16.10;100.00;99348.31;5065058;28;20067;-61
2023/05/17 04:57:32;;;;;;;10.90;6.65;;;;;;;16.18;100.00;99354.25;5060514;28;20036;-61
2023/05/17 04:59:57;;;;;;;12.23;7.05;;;;;;;16.22;100.00;99354.66;5065114;28;20039;-62
2023/05/17 05:02:23;;;;;;;13.25;6.88;;;;;;;16.28;100.00;99359.97;5064619;28;20043;-62
2023/05/17 05:04:48;;;;;;;12.52;6.93;;;;;;;16.17;100.00;99349.13;5062381;28;20069;-61
2023/05/17 05:07:14;;;;;;;11.07;6.93;;;;;;;16.35;100.00;99372.50;5060657;28;20111;-61
2023/05/17 05:09:39;;;;;;;11.20;7.32;;;;;;;16.39;100.00;99376.41;5064925;28;20138;-62
2023/05/17 05:12:05;;;;;;;13.07;8.13;;;;;;;16.42;100.00;99368.78;5061827;28;20033;-62
2023/05/17 05:14:30;;;;;;;15.00;7.75;;;;;;;16.39;100.00;99377.22;5060886;28;20225;-62
2023/05/17 05:16:56;;;;;;;15.57;8.00;;;;;;;16.46;100.00;99382.56;5060471;28;20040;-62
2023/05/17 05:19:21;;;;;;;12.45;8.10;;;;;;;16.52;100.00;99365.69;5060727;28;20037;-62
2023/05/17 05:21:47;;;;;;;13.63;8.63;;;;;;;16.58;100.00;99386.22;5064140;28;20032;-62
2023/05/17 05:24:12;;;;;;;14.98;9.13;;;;;;;16.54;100.00;99385.84;5061057;28;20049;-62
2023/05/17 05:26:37;;;;;;;20.52;9.38;;;;;;;16.52;100.00;99379.06;5063634;28;20038;-62
2023/05/17 05:29:03;;;;;;;16.13;9.30;;;;;;;16.55;100.00;99382.13;5061838;28;20047;-62
2023/05/17 05:31:29;;;;;;;17.58;8.98;;;;;;;16.41;100.00;99383.19;5061048;28;20040;-62
2023/05/17 05:33:54;;;;;;;17.02;9.70;;;;;;;16.42;100.00;99386.69;5059399;28;20045;-62
2023/05/17 05:36:19;;;;;;;16.05;9.70;;;;;;;16.48;100.00;99389.34;5063735;28;20029;-62
2023/05/17 05:38:45;;;;;;;13.40;9.25;;;;;;;16.55;100.00;99382.13;5067081;28;20043;-62
2023/05/17 05:41:10;;;;;;;14.32;9.25;;;;;;;16.56;100.00;99386.44;5066198;28;20047;-61
2023/05/17 05:43:36;;;;;;;15.25;9.85;;;;;;;16.55;100.00;99382.13;5070067;28;20036;-62
2023/05/17 05:46:02;;;;;;;17.23;10.20;;;;;;;16.55;100.00;99384.81;5066796;28;20033;-62
2023/05/17 05:48:27;;;;;;;15.80;9.65;;;;;;;16.58;100.00;99380.88;5067775;28;20051;-63
2023/05/17 05:50:53;;;;;;;14.75;9.27;;;;;;;16.58;100.00;99387.06;5073133;28;20036;-62
2023/05/17 05:53:18;;;;;;;14.73;8.57;;;;;;;16.65;100.00;99378.22;5079485;28;20345;-62
2023/05/17 05:55:44;;;;;;;17.20;10.10;;;;;;;16.67;100.00;99387.72;5080259;28;20050;-62
2023/05/17 05:58:09;;;;;;;14.60;9.85;;;;;;;16.72;100.00;99392.44;5079245;28;20048;-62
2023/05/17 06:00:35;;;;;;;16.50;9.27;;;;;;;16.86;100.00;99388.69;5080360;28;20049;-61
2023/05/17 06:03:01;;;;;;;16.55;9.45;;;;;;;16.96;100.00;99380.22;5080412;28;20260;-63
2023/05/17 06:05:27;;;;;;;15.75;10.00;;;;;;;16.95;100.00;99378.56;5080354;28;20040;-62
2023/05/17 06:07:52;;;;;;;14.65;9.82;;;;;;;17.11;100.00;99376.22;5079610;28;20046;-62
2023/05/17 06:10:18;;;;;;;14.23;9.50;;;;;;;17.34;100.00;99366.84;5079135;28;20032;-62
2023/05/17 06:12:43;;;;;;;15.90;10.88;;;;;;;17.54;100.00;99362.19;5078324;28;20062;-62
2023/05/17 06:15:09;;;;;;;16.95;10.38;;;;;;;17.65;100.00;99372.19;5078289;28;20036;-62
2023/05/17 06:17:34;;;;;;;16.40;9.50;;;;;;;17.92;100.00;99370.22;5079206;28;20341;-63
2023/05/17 06:20:00;;;;;;;13.95;9.43;;;;;;;17.93;100.00;99377.19;5078886;28;20040;-62
2023/05/17 06:22:25;;;;;;;14.90;9.73;;;;;;;17.93;100.00;99385.25;5078781;28;20039;-62
2023/05/17 06:24:51;;;;;;;20.77;10.20;;;;;;;17.99;100.00;99386.22;5078716;28;20311;-62
2023/05/17 06:27:16;;;;;;;19.38;11.15;;;;;;;17.95;100.00;99390.38;5077811;28;20032;-62
2023/05/17 06:29:42;;;;;;;20.67;11.38;;;;;;;17.88;100.00;99397.66;5079077;28;20044;-62
2023/05/17 06:32:07;;;;;;;16.13;10.43;;;;;;;18.00;100.00;99401.25;5078595;28;20224;-62
2023/05/17 06:34:33;;;;;;;18.20;9.88;;;;;;;18.05;100.00;99391.53;5078472;28;20040;-62
2023/05/17 06:36:58;;;;;;;17.38;9.30;;;;;;;18.17;100.00;99392.44;5079215;28;20090;-62
2023/05/17 06:39:24;;;;;;;17.63;10.10;;;;;;;18.14;100.00;99386.72;5078858;28;20044;-62
2023/05/17 06:41:49;;;;;;;17.13;9.68;;;;;;;17.93;100.00;99390.59;5078123;28;20104;-62
2023/05/17 06:44:15;;;;;;;15.20;9.23;;;;;;;17.96;100.00;99390.16;5078376;28;20029;-62
2023/05/17 06:46:40;;;;;;;15.63;9.48;;;;;;;17.93;100.00;99395.13;5078657;28;20031;-62
2023/05/17 06:49:06;;;;;;;14.30;7.97;;;;;;;18.02;100.00;99391.97;5078320;28;20050;-62
2023/05/17 06:51:31;;;;;;;13.20;7.57;;;;;;;18.11;100.00;99396.00;5078091;28;20200;-62
2023/05/17 06:53:56;;;;;;;11.40;6.22;;;;;;;18.19;100.00;99387.69;5078609;28;20040;-62
2023/05/17 06:56:22;;;;;;;11.00;7.20;;;;;;;18.24;100.00;99396.94;5078488;28;20035;-62
2023/05/17 06:58:47;;;;;;;11.38;6.97;;;;;;;18.26;100.00;99398.34;5078702;28;20032;-62
2023/05/17 07:01:13;;;;;;;11.20;7.57;;;;;;;18.31;100.00;99405.72;5078611;28;20043;-62
2023/05/17 07:03:38;;;;;;;11.23;6.80;;;;;;;18.35;100.00;99406.94;5078116;28;20036;-62
2023/05/17 07:06:04;;;;;;;10.60;6.88;;;;;;;18.33;100.00;99409.84;5078683;28;20036;-62
2023/05/17 07:08:29;;;;;;;10.68;6.15;;;;;;;18.34;100.00;99414.16;5077905;28;20131;-62
2023/05/17 07:10:55;;;;;;;10.35;6.78;;;;;;;18.13;100.00;99419.91;5078168;28;20481;-62
2023/05/17 07:13:20;;;;;;;15.15;7.00;;;;;;;18.14;100.00;99426.91;5077309;28;20040;-62
2023/05/17 07:15:46;;;;;;;12.70;7.68;;;;;;;18.18;100.00;99434.28;5077441;28;20051;-62
2023/05/17 07:18:11;;;;;;;13.90;8.10;;;;;;;17.96;100.00;99437.56;5077920;28;20082;-62
2023/05/17 07:20:36;;;;;;;14.60;8.40;;;;;;;18.00;100.00;99439.59;5078415;28;20032;-61
2023/05/17 07:23:02;;;;;;;16.65;9.50;;;;;;;18.07;100.00;99436.84;5078154;28;20024;-62
2023/05/17 07:25:27;;;;;;;14.02;8.45;;;;;;;18.07;100.00;99444.91;5078526;28;20363;-61
2023/05/17 07:27:53;;;;;;;16.98;11.23;;;;;;;18.10;100.00;99439.91;5077134;28;20082;-62
2023/05/17 07:30:18;;;;;;;18.60;10.73;;;;;;;18.11;100.00;99441.56;5078138;28;20330;-62
2023/05/17 07:32:44;;;;;;;20.85;11.85;;;;;;;18.13;100.00;99439.47;5077626;28;20257;-61
2023/05/17 07:35:09;;;;;;;18.90;12.25;;;;;;;18.04;100.00;99431.94;5078039;28;20037;-62
2023/05/17 07:37:35;;;;;;;19.33;12.32;;;;;;;18.12;100.00;99434.34;5077037;28;20056;-62
2023/05/17 07:40:01;;;;;;;18.98;11.13;;;;;;;18.11;100.00;99436.19;5077868;28;20032;-62
2023/05/17 07:42:26;;;;;;;16.48;10.75;;;;;;;18.16;100.00;99431.00;5074635;28;20044;-61
2023/05/17 07:44:52;;;;;;;20.30;10.95;;;;;;;18.15;100.00;99423.19;5072793;28;20230;-62
2023/05/17 07:47:17;;;;;;;20.45;11.07;;;;;;;17.93;100.00;99419.25;5073761;28;20032;-62
2023/05/17 07:49:43;;;;;;;18.02;10.35;;;;;;;17.77;100.00;99410.69;5074004;28;20078;-62
2023/05/17 07:52:08;;;;;;;17.55;12.30;;;;;;;17.92;100.00;99415.75;5072390;28;20040;-62
2023/05/17 07:54:33;;;;;;;18.70;10.77;;;;;;;17.95;100.00;99415.31;5073129;28;20236;-62
2023/05/17 07:56:59;;;;;;;18.42;10.45;;;;;;;17.90;100.00;99417.81;5072502;28;20310;-62
2023/05/17 07:59:25;;;;;;;16.77;11.10;;;;;;;17.92;100.00;99428.31;5072164;28;20041;-61
2023/05/17 08:01:51;;;;;;;21.48;10.98;;;;;;;17.92;100.00;99426.47;5072336;28;20242;-61
2023/05/17 08:04:18;;;;;;;20.50;11.82;;;;;;;17.95;100.00;99425.19;5072631;28;20046;-62
2023/05/17 08:06:45;;;;;;;16.90;10.90;;;;;;;17.93;100.00;99422.75;5072027;28;20337;-62
2023/05/17 08:09:11;;;;;;;21.48;11.45;;;;;;;17.73;100.00;99417.53;5072651;28;20102;-62
2023/05/17 08:11:37;;;;;;;16.27;10.02;;;;;;;17.60;100.00;99414.88;5071314;28;20029;-61
2023/05/17 08:14:02;;;;;;;17.38;11.57;;;;;;;17.35;100.00;99420.16;5072393;28;20033;-62
2023/05/17 08:16:28;;;;;;;18.15;11.13;;;;;;;17.20;100.00;99406.22;5071368;28;20589;-62
2023/05/17 08:18:53;;;;;;;18.80;11.13;;;;;;;17.11;100.00;99404.84;5071219;28;20044;-62
2023/05/17 08:21:19;;;;;;;16.23;10.38;;;;;;;16.95;100.00;99416.84;5070536;28;20036;-61
2023/05/17 08:23:44;;;;;;;18.52;10.70;;;;;;;16.79;100.00;99406.59;5071542;28;20039;-62
2023/05/17 08:26:11;;;;;;;16.77;11.65;;;;;;;16.60;100.00;99410.91;5072430;28;20085;-61
2023/05/17 08:28:37;;;;;;;21.55;11.63;;;;;;;16.55;100.00;99416.88;5070448;28;20466;-62
2023/05/17 08:31:05;;;;;;;20.35;12.35;;;;;;;16.48;100.00;99416.06;5071164;28;20063;-61
2023/05/17 08:33:31;;;;;;;16.73;10.35;;;;;;;16.51;100.00;99407.63;5069302;28;20108;-62
2023/05/17 08:36:00;;;;;;;22.08;11.82;;;;;;;16.52;100.00;99395.09;5069834;28;20060;-61
2023/05/17 08:38:25;;;;;;;19.00;11.73;;;;;;;16.48;100.00;99399.22;5070486;28;20036;-62
2023/05/17 08:40:55;;;;;;;22.45;13.00;;;;;;;16.46;100.00;99410.09;5070991;28;20024;-62
2023/05/17 08:43:23;;;;;;;22.27;13.40;;;;;;;16.30;100.00;99413.22;5070798;28;20068;-62
2023/05/17 08:45:50;;;;;;;30.02;18.15;;;;;;;16.21;100.00;99431.31;5070131;28;20099;-61
2023/05/17 08:48:16;;;;;;;28.13;18.17;;;;;;;16.15;100.00;99424.09;5068808;28;20044;-62
2023/05/17 08:50:42;;;;;;;23.38;15.02;;;;;;;15.90;100.00;99429.25;5068447;28;20037;-61
2023/05/17 08:53:08;;;;;;;18.17;11.63;;;;;;;15.78;100.00;99433.53;5070722;28;20043;-61
2023/05/17 08:55:35;;;;;;;18.50;10.95;;;;;;;15.93;100.00;99428.00;5070672;28;20032;-61
2023/05/17 08:58:01;;;;;;;14.85;9.68;;;;;;;15.84;100.00;99440.72;5070071;28;20036;-61
2023/05/17 09:00:27;;;;;;;16.05;10.00;;;;;;;15.92;100.00;99432.53;5070609;28;20070;-62
2023/05/17 09:02:52;;;;;;;19.05;9.80;;;;;;;15.84;100.00;99423.88;5069757;28;20044;-61
2023/05/17 09:05:19;;;;;;;15.15;9.90;;;;;;;15.90;100.00;99420.41;5070787;28;21367;-62
2023/05/17 09:07:46;;;;;;;13.05;9.25;;;;;;;15.94;100.00;99418.97;5071151;28;20203;-62
2023/05/17 09:10:12;;;;;;;15.20;9.35;;;;;;;16.11;100.00;99414.03;5068725;28;20392;-61
2023/05/17 09:12:37;;;;;;;14.60;9.65;;;;;;;16.26;100.00;99414.66;5071278;28;20041;-61
2023/05/17 09:15:14;;;;;;;15.50;10.43;;;;;;;16.44;100.00;99404.16;5074522;28;20499;-62
2023/05/17 09:17:40;;;;;;;14.35;10.20;;;;;;;16.55;100.00;99403.50;5073945;28;20029;-62
2023/05/17 09:20:07;;;;;;;20.02;10.73;;;;;;;16.65;100.00;99408.50;5072895;28;20044;-62
2023/05/17 09:22:33;;;;;;;14.57;10.55;;;;;;;16.72;100.00;99420.00;5072646;28;20230;-62
2023/05/17 09:25:03;;;;;;;15.55;10.60;;;;;;;16.83;100.00;99429.22;5075081;28;20032;-61
2023/05/17 09:27:30;;;;;;;17.50;10.60;;;;;;;16.85;100.00;99436.00;5072970;28;20060;-62
2023/05/17 09:29:57;;;;;;;17.25;10.88;;;;;;;16.65;100.00;99448.59;5074613;28;20101;-61
2023/05/17 09:32:23;;;;;;;20.77;13.32;;;;;;;16.33;100.00;99450.19;5073853;28;20457;-62
2023/05/17 09:34:52;;;;;;;20.05;12.90;;;;;;;16.08;100.00;99449.19;5073009;28;20641;-62
2023/05/17 09:37:18;;;;;;;18.05;12.07;;;;;;;15.96;100.00;99448.97;5074893;28;20036;-62
2023/05/17 09:39:46;;;;;;;20.23;12.35;;;;;;;16.10;100.00;99441.78;5073834;28;20032;-61
2023/05/17 09:42:12;;;;;;;19.10;11.57;;;;;;;16.14;100.00;99445.69;5075151;28;20036;-62
2023/05/17 09:44:50;;;;;;;17.52;11.18;;;;;;;16.24;100.00;99441.56;5074195;28;20033;-62
2023/05/17 09:47:27;;;;;;;18.85;10.65;;;;;;;16.27;100.00;99437.66;5074010;28;20038;-62
2023/05/17 09:49:53;;;;;;;17.42;11.63;;;;;;;16.45;100.00;99429.03;5073225;28;20257;-62
2023/05/17 09:52:20;;;;;;;16.40;10.80;;;;;;;16.56;100.00;99415.84;5074642;28;20036;-61
2023/05/17 09:54:55;;;;;;;16.98;11.70;;;;;;;16.67;100.00;99424.31;5075161;28;20222;-62
2023/05/17 09:57:21;;;;;;;20.05;10.60;;;;;;;16.67;100.00;99421.66;5072663;28;20047;-62
2023/05/17 09:59:47;;;;;;;17.55;10.77;;;;;;;16.73;100.00;99413.59;5074598;28;20334;-62
2023/05/17 10:02:25;;;;;;;17.77;11.57;;;;;;;16.86;100.00;99413.56;5073443;28;20100;-63
2023/05/17 10:04:52;;;;;;;18.52;11.38;;;;;;;16.90;100.00;99414.78;5074382;28;20268;-62
2023/05/17 10:07:18;;;;;;;17.33;11.43;;;;;;;16.94;100.00;99409.03;5072293;28;20606;-61
2023/05/17 10:09:51;;;;;;;20.52;11.60;;;;;;;17.03;100.00;99416.59;5071173;28;20076;-63
2023/05/17 10:12:20;;;;;;;17.23;10.32;;;;;;;17.08;100.00;99413.28;5072797;28;20037;-63
2023/05/17 10:14:46;;;;;;;13.73;10.85;;;;;;;17.11;100.00;99405.66;5072468;28;20086;-62
2023/05/17 10:17:12;;;;;;;15.48;10.20;;;;;;;17.03;100.00;99403.22;5074204;28;20028;-62
2023/05/17 10:19:38;;;;;;;16.85;10.55;;;;;;;16.89;100.00;99406.97;5074328;28;20032;-62
2023/05/17 10:22:05;;;;;;;20.67;11.50;;;;;;;16.89;100.00;99393.59;5078157;28;20313;-62
2023/05/17 10:24:31;;;;;;;20.30;12.20;;;;;;;16.91;100.00;99391.53;5077067;28;20451;-62
2023/05/17 10:26:57;;;;;;;19.92;12.55;;;;;;;16.91;100.00;99392.38;5077560;28;20047;-62
2023/05/17 10:29:23;;;;;;;16.13;11.48;;;;;;;16.98;100.00;99381.63;5078234;28;20040;-62
2023/05/17 10:31:52;;;;;;;18.48;12.73;;;;;;;17.05;100.00;99382.44;5078228;28;20107;-62
2023/05/17 10:34:19;;;;;;;20.67;12.68;;;;;;;17.12;100.00;99393.09;5078130;28;20043;-62
2023/05/17 10:36:45;;;;;;;17.52;11.93;;;;;;;17.12;100.00;99390.44;5078491;28;20055;-62
2023/05/17 10:39:11;;;;;;;18.83;11.43;;;;;;;17.09;100.00;99380.16;5078108;28;20040;-62
2023/05/17 10:41:40;;;;;;;18.33;11.73;;;;;;;17.02;100.00;99393.56;5078074;28;20048;-62
2023/05/17 10:44:08;;;;;;;19.58;12.88;;;;;;;16.71;100.00;99388.13;5076558;28;20036;-62
2023/05/17 10:46:35;;;;;;;21.23;13.50;;;;;;;16.49;100.00;99390.97;5077972;28;20044;-63
2023/05/17 10:49:02;;;;;;;21.85;14.00;;;;;;;16.49;100.00;99392.84;5077918;28;20052;-62
2023/05/17 10:51:37;;;;;;;19.48;12.48;;;;;;;16.07;100.00;99402.94;5078339;28;20032;-61
2023/05/17 10:54:17;;;;;;;19.70;13.10;;;;;;;15.89;100.00;99408.91;5078161;28;20044;-61
2023/05/17 10:56:49;;;;;;;19.75;12.00;;;;;;;15.92;100.00;99395.16;5077481;28;20028;-62
2023/05/17 10:59:20;;;;;;;23.42;13.68;;;;;;;15.98;100.00;99398.84;5077729;28;20334;-62
2023/05/17 11:01:53;;;;;;;17.70;12.23;;;;;;;15.94;100.00;99393.09;5077657;28;20048;-61
2023/05/17 11:04:26;;;;;;;19.38;12.90;;;;;;;15.92;100.00;99391.66;5077027;28;20040;-63
2023/05/17 11:07:15;;;;;;;21.95;14.63;;;;;;;16.26;100.00;99385.25;5076810;28;20098;-62
2023/05/17 11:09:41;;;;;;;22.77;13.57;;;;;;;16.45;100.00;99375.56;5077439;28;20040;-62
2023/05/17 11:12:11;;;;;;;23.95;13.07;;;;;;;16.36;100.00;99380.31;5077420;28;20223;-62
2023/05/17 11:14:51;;;;;;;21.63;12.90;;;;;;;16.49;100.00;99374.94;5077007;28;20044;-62
2023/05/17 11:17:25;;;;;;;20.58;12.70;;;;;;;16.67;100.00;99377.03;5077312;28;20121;-62